SIA325 EDDF-WSSS
Flight info
| Callsign | SIA325 |
|---|---|
| Flight time | N/A |
| Altitude | 31000 |
| Route | SULUS7S/18 SULUS Z650 VEMUT/N0487F330 DCT NELPA DCT PEPIK DCT AMRAX/N0487F350 DCT NARKA DCT RULES DCT ELROM DCT MOBRA DCT DENAK DCT DINRO DCT UDROS DCT ABSAX DCT REBLO P130 DOGAM/N0491F370 P130 MAMED B449 RANAH L750 ZB G202 RK P628 IBANI L510 GURVI T1 BBS/N0495F390 L759 PUT B579 VPL Y503 RINBA Y507 MAKNA Y511 TOPOR A464 ARAMA ARAMA1A |
| Aircraft | A388/J-SADE2E3FGHIJ3J4J5M1RWXY/LB1D1 |
Departure
| Time | 2026-05-06 23:10 |
|---|---|
| Airport | Frankfurt Main Airport (EDDF) |
Arrival
| Time | N/A |
|---|---|
| Airport | Singapore Changi Airport (WSSS) |
| Time | Latitude | Longitude | Altitude | Speed | Heading |
|---|---|---|---|---|---|
| 2026-05-06 22:21 | 50.04763 | 8.57750 | 366 ft | 0 kts | 270° |
| 2026-05-06 22:50 | 50.04762 | 8.57781 | 367 ft | 4 kts | 270° |
| 2026-05-06 22:50 | 50.04762 | 8.57821 | 366 ft | 2 kts | 270° |
| 2026-05-06 22:51 | 50.04764 | 8.57856 | 367 ft | 4 kts | 255° |
| 2026-05-06 22:51 | 50.04774 | 8.57887 | 370 ft | 4 kts | 226° |
| 2026-05-06 22:51 | 50.04790 | 8.57902 | 365 ft | 4 kts | 189° |
| 2026-05-06 22:51 | 50.04810 | 8.57897 | 368 ft | 4 kts | 156° |
| 2026-05-06 22:52 | 50.04832 | 8.57878 | 369 ft | 4 kts | 136° |
| 2026-05-06 22:52 | 50.04846 | 8.57847 | 368 ft | 4 kts | 114° |
| 2026-05-06 22:52 | 50.04855 | 8.57809 | 367 ft | 4 kts | 111° |
| 2026-05-06 22:52 | 50.04857 | 8.57799 | 364 ft | 1 kts | 113° |
| 2026-05-06 22:57 | 50.04851 | 8.57822 | 364 ft | 6 kts | 113° |
| 2026-05-06 22:57 | 50.04815 | 8.57888 | 369 ft | 11 kts | 150° |
| 2026-05-06 22:58 | 50.04748 | 8.57924 | 364 ft | 10 kts | 187° |
| 2026-05-06 22:58 | 50.04699 | 8.57864 | 368 ft | 9 kts | 245° |
| 2026-05-06 22:58 | 50.04675 | 8.57767 | 371 ft | 10 kts | 249° |
| 2026-05-06 22:58 | 50.04649 | 8.57657 | 369 ft | 12 kts | 250° |
| 2026-05-06 22:59 | 50.04622 | 8.57540 | 366 ft | 10 kts | 248° |
| 2026-05-06 22:59 | 50.04595 | 8.57432 | 370 ft | 11 kts | 250° |
| 2026-05-06 22:59 | 50.04568 | 8.57317 | 369 ft | 11 kts | 250° |
| 2026-05-06 22:59 | 50.04541 | 8.57200 | 369 ft | 12 kts | 250° |
| 2026-05-06 23:00 | 50.04513 | 8.57082 | 368 ft | 12 kts | 250° |
| 2026-05-06 23:00 | 50.04484 | 8.56964 | 370 ft | 9 kts | 249° |
| 2026-05-06 23:00 | 50.04463 | 8.56876 | 368 ft | 9 kts | 249° |
| 2026-05-06 23:00 | 50.04439 | 8.56776 | 369 ft | 11 kts | 250° |
| 2026-05-06 23:01 | 50.04410 | 8.56652 | 369 ft | 15 kts | 250° |
| 2026-05-06 23:01 | 50.04375 | 8.56505 | 367 ft | 14 kts | 249° |
| 2026-05-06 23:01 | 50.04338 | 8.56356 | 366 ft | 15 kts | 249° |
| 2026-05-06 23:01 | 50.04307 | 8.56229 | 366 ft | 12 kts | 249° |
| 2026-05-06 23:02 | 50.04278 | 8.56105 | 367 ft | 12 kts | 251° |
| 2026-05-06 23:02 | 50.04249 | 8.55979 | 368 ft | 12 kts | 250° |
| 2026-05-06 23:02 | 50.04219 | 8.55853 | 364 ft | 13 kts | 249° |
| 2026-05-06 23:02 | 50.04186 | 8.55720 | 362 ft | 13 kts | 250° |
| 2026-05-06 23:03 | 50.04154 | 8.55582 | 365 ft | 14 kts | 250° |
| 2026-05-06 23:03 | 50.04121 | 8.55446 | 364 ft | 12 kts | 249° |
| 2026-05-06 23:03 | 50.04091 | 8.55322 | 366 ft | 12 kts | 250° |
| 2026-05-06 23:03 | 50.04064 | 8.55207 | 365 ft | 11 kts | 250° |
| 2026-05-06 23:04 | 50.04037 | 8.55092 | 366 ft | 12 kts | 250° |
| 2026-05-06 23:04 | 50.04008 | 8.54972 | 365 ft | 12 kts | 249° |
| 2026-05-06 23:04 | 50.03977 | 8.54842 | 363 ft | 13 kts | 249° |
| 2026-05-06 23:04 | 50.03943 | 8.54700 | 359 ft | 14 kts | 249° |
| 2026-05-06 23:05 | 50.03907 | 8.54551 | 361 ft | 15 kts | 250° |
| 2026-05-06 23:05 | 50.03866 | 8.54397 | 361 ft | 15 kts | 240° |
| 2026-05-06 23:05 | 50.03811 | 8.54257 | 360 ft | 15 kts | 247° |
| 2026-05-06 23:05 | 50.03774 | 8.54111 | 358 ft | 15 kts | 249° |
| 2026-05-06 23:06 | 50.03738 | 8.53964 | 353 ft | 15 kts | 249° |
| 2026-05-06 23:06 | 50.03702 | 8.53816 | 351 ft | 14 kts | 250° |
| 2026-05-06 23:06 | 50.03667 | 8.53670 | 349 ft | 15 kts | 250° |
| 2026-05-06 23:06 | 50.03630 | 8.53527 | 355 ft | 14 kts | 249° |
| 2026-05-06 23:07 | 50.03595 | 8.53381 | 352 ft | 15 kts | 249° |
| 2026-05-06 23:07 | 50.03560 | 8.53232 | 348 ft | 15 kts | 250° |
| 2026-05-06 23:07 | 50.03524 | 8.53082 | 344 ft | 15 kts | 250° |
| 2026-05-06 23:07 | 50.03487 | 8.52930 | 351 ft | 15 kts | 247° |
| 2026-05-06 23:08 | 50.03447 | 8.52784 | 336 ft | 13 kts | 248° |
| 2026-05-06 23:08 | 50.03420 | 8.52673 | 336 ft | 7 kts | 249° |
| 2026-05-06 23:08 | 50.03404 | 8.52619 | 335 ft | 5 kts | 227° |
| 2026-05-06 23:08 | 50.03374 | 8.52596 | 336 ft | 5 kts | 183° |
| 2026-05-06 23:09 | 50.03361 | 8.52595 | 337 ft | 0 kts | 180° |
| 2026-05-06 23:09 | 50.03357 | 8.52595 | 337 ft | 6 kts | 180° |
| 2026-05-06 23:09 | 50.03064 | 8.52597 | 340 ft | 79 kts | 179° |
| 2026-05-06 23:09 | 50.02286 | 8.52604 | 336 ft | 141 kts | 179° |
| 2026-05-06 23:10 | 50.01161 | 8.52629 | 352 ft | 179 kts | 175° |
| 2026-05-06 23:10 | 49.99908 | 8.52796 | 752 ft | 178 kts | 172° |
| 2026-05-06 23:10 | 49.98665 | 8.52922 | 1237 ft | 181 kts | 179° |
| 2026-05-06 23:10 | 49.97422 | 8.53066 | 1694 ft | 185 kts | 163° |
| 2026-05-06 23:11 | 49.96270 | 8.54041 | 2030 ft | 198 kts | 135° |
| 2026-05-06 23:11 | 49.95485 | 8.55846 | 2215 ft | 208 kts | 118° |
| 2026-05-06 23:11 | 49.94766 | 8.57866 | 2338 ft | 220 kts | 118° |
| 2026-05-06 23:11 | 49.94152 | 8.60077 | 2429 ft | 228 kts | 102° |
| 2026-05-06 23:12 | 49.93973 | 8.62587 | 2616 ft | 242 kts | 89° |
| 2026-05-06 23:12 | 49.93907 | 8.65296 | 2902 ft | 260 kts | 91° |
| 2026-05-06 23:12 | 49.93732 | 8.68140 | 3338 ft | 269 kts | 104° |
| 2026-05-06 23:12 | 49.92855 | 8.70711 | 3943 ft | 272 kts | 134° |
| 2026-05-06 23:13 | 49.91912 | 8.71970 | 4467 ft | 270 kts | 145° |
| 2026-05-06 23:13 | 49.89850 | 8.74121 | 5385 ft | 271 kts | 148° |
| 2026-05-06 23:13 | 49.88408 | 8.76032 | 6053 ft | 276 kts | 133° |
| 2026-05-06 23:13 | 49.87324 | 8.78525 | 6667 ft | 282 kts | 121° |
| 2026-05-06 23:14 | 49.86374 | 8.81208 | 7289 ft | 285 kts | 121° |
| 2026-05-06 23:14 | 49.85732 | 8.82994 | 7721 ft | 286 kts | 121° |
| 2026-05-06 23:14 | 49.84747 | 8.85711 | 8263 ft | 292 kts | 122° |
| 2026-05-06 23:14 | 49.83971 | 8.88633 | 8917 ft | 296 kts | 101° |
| 2026-05-06 23:15 | 49.84011 | 8.91820 | 9578 ft | 299 kts | 79° |
| 2026-05-06 23:15 | 49.84459 | 8.94986 | 10143 ft | 304 kts | 77° |
| 2026-05-06 23:15 | 49.84966 | 8.98261 | 10332 ft | 321 kts | 77° |
| 2026-05-06 23:15 | 49.85486 | 9.01716 | 10487 ft | 337 kts | 78° |
| 2026-05-06 23:16 | 49.85933 | 9.04830 | 10665 ft | 349 kts | 78° |
| 2026-05-06 23:16 | 49.86465 | 9.08662 | 11182 ft | 353 kts | 78° |
| 2026-05-06 23:16 | 49.86972 | 9.12373 | 11778 ft | 353 kts | 78° |
| 2026-05-06 23:16 | 49.87477 | 9.16103 | 12289 ft | 356 kts | 78° |
| 2026-05-06 23:17 | 49.87984 | 9.19865 | 12873 ft | 357 kts | 78° |
| 2026-05-06 23:17 | 49.88488 | 9.23610 | 13362 ft | 361 kts | 78° |
| 2026-05-06 23:17 | 49.89003 | 9.27450 | 13887 ft | 363 kts | 78° |
| 2026-05-06 23:17 | 49.89513 | 9.31262 | 14424 ft | 363 kts | 78° |
| 2026-05-06 23:18 | 49.90029 | 9.35123 | 14835 ft | 368 kts | 78° |
| 2026-05-06 23:18 | 49.90547 | 9.39010 | 15372 ft | 368 kts | 78° |
| 2026-05-06 23:18 | 49.91064 | 9.42902 | 15856 ft | 370 kts | 78° |
| 2026-05-06 23:18 | 49.91583 | 9.46812 | 16317 ft | 372 kts | 78° |
| 2026-05-06 23:19 | 49.92104 | 9.50758 | 16818 ft | 373 kts | 78° |
| 2026-05-06 23:19 | 49.92625 | 9.54716 | 17250 ft | 376 kts | 78° |
| 2026-05-06 23:19 | 49.93150 | 9.58708 | 17731 ft | 377 kts | 78° |
| 2026-05-06 23:19 | 49.93670 | 9.62665 | 18115 ft | 381 kts | 79° |
| 2026-05-06 23:20 | 49.94197 | 9.66709 | 18505 ft | 383 kts | 79° |
| 2026-05-06 23:20 | 49.94722 | 9.70742 | 18879 ft | 384 kts | 79° |
| 2026-05-06 23:20 | 49.95252 | 9.74820 | 19249 ft | 386 kts | 80° |
| 2026-05-06 23:20 | 49.95782 | 9.78912 | 19624 ft | 388 kts | 79° |
| 2026-05-06 23:21 | 49.96314 | 9.83030 | 19996 ft | 390 kts | 80° |
| 2026-05-06 23:21 | 49.96848 | 9.87183 | 20357 ft | 392 kts | 80° |
| 2026-05-06 23:21 | 49.97382 | 9.91344 | 20732 ft | 394 kts | 79° |
| 2026-05-06 23:21 | 49.97916 | 9.95520 | 21096 ft | 395 kts | 80° |
| 2026-05-06 23:22 | 49.98452 | 9.99719 | 21462 ft | 397 kts | 80° |
| 2026-05-06 23:22 | 49.98990 | 10.03943 | 21805 ft | 400 kts | 80° |
| 2026-05-06 23:22 | 49.99530 | 10.08198 | 22117 ft | 402 kts | 80° |
| 2026-05-06 23:22 | 50.00071 | 10.12481 | 22405 ft | 406 kts | 80° |
| 2026-05-06 23:23 | 50.00615 | 10.16798 | 22778 ft | 407 kts | 80° |
| 2026-05-06 23:23 | 50.01160 | 10.21136 | 23131 ft | 409 kts | 80° |
| 2026-05-06 23:23 | 50.01704 | 10.25488 | 23456 ft | 411 kts | 80° |
| 2026-05-06 23:23 | 50.02251 | 10.29865 | 23755 ft | 413 kts | 81° |
| 2026-05-06 23:24 | 50.02796 | 10.34251 | 24066 ft | 414 kts | 81° |
| 2026-05-06 23:24 | 50.03343 | 10.38656 | 24367 ft | 415 kts | 81° |
| 2026-05-06 23:24 | 50.03882 | 10.43019 | 24670 ft | 417 kts | 81° |
| 2026-05-06 23:24 | 50.04430 | 10.47469 | 24968 ft | 418 kts | 81° |
| 2026-05-06 23:25 | 50.04978 | 10.51929 | 25296 ft | 420 kts | 81° |
| 2026-05-06 23:25 | 50.05526 | 10.56399 | 25588 ft | 422 kts | 82° |
| 2026-05-06 23:25 | 50.06078 | 10.60931 | 25687 ft | 430 kts | 82° |
| 2026-05-06 23:25 | 50.06634 | 10.65523 | 26032 ft | 431 kts | 82° |
| 2026-05-06 23:26 | 50.07015 | 10.70147 | 26371 ft | 429 kts | 92° |
| 2026-05-06 23:26 | 50.06866 | 10.74768 | 26703 ft | 427 kts | 102° |
| 2026-05-06 23:26 | 50.06203 | 10.79252 | 27055 ft | 425 kts | 112° |
| 2026-05-06 23:26 | 50.05250 | 10.83606 | 27385 ft | 427 kts | 111° |
| 2026-05-06 23:27 | 50.04318 | 10.88004 | 27740 ft | 429 kts | 111° |
| 2026-05-06 23:27 | 50.03388 | 10.92433 | 28103 ft | 431 kts | 111° |
| 2026-05-06 23:27 | 50.02452 | 10.96876 | 28467 ft | 433 kts | 111° |
| 2026-05-06 23:27 | 50.01509 | 11.01342 | 28770 ft | 436 kts | 112° |
| 2026-05-06 23:28 | 50.00563 | 11.05790 | 28942 ft | 442 kts | 112° |
| 2026-05-06 23:28 | 49.99580 | 11.10391 | 29353 ft | 443 kts | 112° |
| 2026-05-06 23:28 | 49.98607 | 11.14946 | 29720 ft | 445 kts | 113° |
| 2026-05-06 23:28 | 49.97627 | 11.19520 | 30045 ft | 448 kts | 113° |
| 2026-05-06 23:29 | 49.96645 | 11.24097 | 30371 ft | 449 kts | 113° |
| 2026-05-06 23:29 | 49.95661 | 11.28723 | 30699 ft | 451 kts | 112° |
| 2026-05-06 23:29 | 49.94690 | 11.33309 | 30871 ft | 456 kts | 113° |
| 2026-05-06 23:30 | 49.92658 | 11.42879 | 30817 ft | 476 kts | 112° |
| 2026-05-06 23:30 | 49.90817 | 11.52903 | 30852 ft | 485 kts | 110° |
| 2026-05-06 23:31 | 49.89016 | 11.62985 | 30853 ft | 485 kts | 110° |
| 2026-05-06 23:31 | 49.87653 | 11.73260 | 30846 ft | 490 kts | 102° |
| 2026-05-06 23:32 | 49.86755 | 11.83733 | 30842 ft | 490 kts | 102° |
| 2026-05-06 23:32 | 49.85822 | 11.94156 | 30842 ft | 492 kts | 102° |
| 2026-05-06 23:33 | 49.84875 | 12.04650 | 31253 ft | 494 kts | 102° |
| 2026-05-06 23:33 | 49.84398 | 12.09930 | 31586 ft | 496 kts | 103° |
| 2026-05-06 23:33 | 49.83917 | 12.15224 | 31886 ft | 499 kts | 103° |
| 2026-05-06 23:33 | 49.83429 | 12.20567 | 32198 ft | 501 kts | 103° |
| 2026-05-06 23:34 | 49.82939 | 12.25917 | 32597 ft | 501 kts | 103° |
| 2026-05-06 23:34 | 49.82448 | 12.31267 | 32792 ft | 501 kts | 103° |
| 2026-05-06 23:34 | 49.81956 | 12.36619 | 32850 ft | 502 kts | 103° |
| 2026-05-06 23:35 | 49.80823 | 12.47230 | 32853 ft | 497 kts | 109° |
| 2026-05-06 23:35 | 49.78808 | 12.57414 | 32858 ft | 494 kts | 112° |
| 2026-05-06 23:36 | 49.76775 | 12.67550 | 32853 ft | 494 kts | 112° |
| 2026-05-06 23:36 | 49.74743 | 12.77643 | 32831 ft | 493 kts | 112° |
| 2026-05-06 23:37 | 49.72688 | 12.87781 | 32823 ft | 494 kts | 112° |
| 2026-05-06 23:37 | 49.70620 | 12.97911 | 32833 ft | 495 kts | 112° |
| 2026-05-06 23:38 | 49.68545 | 13.08028 | 32838 ft | 495 kts | 112° |
| 2026-05-06 23:38 | 49.66454 | 13.18174 | 32856 ft | 496 kts | 113° |
| 2026-05-06 23:39 | 49.64365 | 13.28258 | 32860 ft | 496 kts | 113° |
| 2026-05-06 23:39 | 49.62254 | 13.38399 | 32861 ft | 497 kts | 113° |
| 2026-05-06 23:40 | 49.60129 | 13.48553 | 32860 ft | 497 kts | 113° |
| 2026-05-06 23:40 | 49.57997 | 13.58687 | 32818 ft | 497 kts | 113° |
| 2026-05-06 23:41 | 49.55859 | 13.68804 | 32837 ft | 497 kts | 113° |
| 2026-05-06 23:41 | 49.53721 | 13.78870 | 32843 ft | 498 kts | 113° |
| 2026-05-06 23:42 | 49.51559 | 13.88998 | 32850 ft | 498 kts | 114° |
| 2026-05-06 23:42 | 49.49385 | 13.99127 | 32852 ft | 498 kts | 114° |
| 2026-05-06 23:43 | 49.47202 | 14.09256 | 32836 ft | 499 kts | 114° |
| 2026-05-06 23:43 | 49.45026 | 14.19299 | 32846 ft | 499 kts | 114° |